Weather at Nyge Airport [CLOSED]

Public forecast

Using degrees Celsius for public forecast. Weather courtesy of forecast.io.

Closest aviation weather report (METAR) to Nyge Airport

Closest report is Stockholm Skavsta Airport, 5.0 nm (9.2 km) WNW. Retrieved 2022/01/29 13:20 UTC (21 minutes ago):

ESKN 291320Z 15007KT 8000 -DZ BKN002 03/03 Q0982

Closest aviation forecast (TAF) to Nyge Airport

Closest forecast is Stockholm Skavsta Airport, 5.0 nm (9.2 km) WNW. Retrieved 2022/01/29 12:00 UTC (2 hours ago):

TAF ESKN 291130Z 2912/3012 19012KT 7000 -RA BKN007 PROB40 2912/2914 0600 FG VV002 BECMG 2915/2917 24018G30KT BKN018 TEMPO 2917/2922 RA BKN014 BECMG 2921/2923 30022G36KT TEMPO 2922/3008 1400 SHSN VV009 BECMG 3005/3007 36024G40KT